createdAt,value
2022-11-24T00:01:16.500Z,0.91
2022-11-24T00:04:33.797Z,0.92
2022-11-24T00:07:50.600Z,0.92
2022-11-24T00:11:13.521Z,0.94
2022-11-24T00:14:29.702Z,0.98
2022-11-24T00:17:45.890Z,0.94
2022-11-24T00:21:03.194Z,0.93
2022-11-24T00:24:20.752Z,0.98
2022-11-24T00:27:36.944Z,0.91
2022-11-24T00:30:53.211Z,0.92
2022-11-24T00:34:12.495Z,0.99
2022-11-24T00:37:26.468Z,1.05
2022-11-24T00:40:42.646Z,1.07
2022-11-24T00:43:59.115Z,1.03
2022-11-24T00:47:15.923Z,0.99
2022-11-24T00:50:32.248Z,1.01
2022-11-24T00:53:49.102Z,1.04
2022-11-24T00:57:05.812Z,1.05
2022-11-24T01:00:24.474Z,0.98
2022-11-24T01:03:41.275Z,1.04
2022-11-24T01:06:57.817Z,1.03
2022-11-24T01:10:16.008Z,0.99
2022-11-24T01:13:32.165Z,1.04
2022-11-24T01:16:48.431Z,1.07
2022-11-24T01:20:05.563Z,1.11
2022-11-24T01:23:21.828Z,1.09
2022-11-24T01:26:37.959Z,1.06
2022-11-24T01:29:54.497Z,1.04
2022-11-24T01:33:10.734Z,1.02
2022-11-24T01:36:28.919Z,1.02
2022-11-24T01:39:45.073Z,1.02
2022-11-24T01:43:01.971Z,1.00
2022-11-24T01:46:25.314Z,1.01
2022-11-24T01:49:48.168Z,1.02
2022-11-24T01:53:06.135Z,1.07
2022-11-24T01:56:23.154Z,1.12
2022-11-24T01:59:40.533Z,1.13
2022-11-24T02:02:56.874Z,1.11
2022-11-24T02:06:17.884Z,1.01
2022-11-24T02:09:38.762Z,1.04
2022-11-24T02:12:59.680Z,1.07
2022-11-24T02:16:19.203Z,1.07
2022-11-24T02:19:46.554Z,1.09
2022-11-24T02:23:07.709Z,0.98
2022-11-24T02:26:32.374Z,0.93
2022-11-24T02:29:50.443Z,0.86
2022-11-24T02:33:07.267Z,0.86
2022-11-24T02:36:23.618Z,0.87
2022-11-24T02:39:39.889Z,0.86
2022-11-24T02:42:57.692Z,0.90
2022-11-24T02:46:15.183Z,0.88
2022-11-24T02:49:33.416Z,0.84
2022-11-24T02:52:49.858Z,0.93
2022-11-24T02:56:06.380Z,0.99
2022-11-24T02:59:22.554Z,0.99
2022-11-24T03:02:39.472Z,1.04
2022-11-24T03:05:56.000Z,1.11
2022-11-24T03:09:15.248Z,1.13
2022-11-24T03:12:31.346Z,1.10
2022-11-24T03:15:48.720Z,1.05
2022-11-24T03:19:05.099Z,1.05
2022-11-24T03:22:21.864Z,1.04
2022-11-24T03:25:37.985Z,0.99
2022-11-24T03:28:55.288Z,0.92
2022-11-24T03:32:11.966Z,0.92
2022-11-24T03:35:28.999Z,0.93
2022-11-24T03:38:45.480Z,0.96
2022-11-24T03:42:01.702Z,1.00
2022-11-24T03:45:44.877Z,0.98
2022-11-24T03:48:38.298Z,0.87
2022-11-24T03:51:54.341Z,0.85
2022-11-24T03:55:11.274Z,0.85
2022-11-24T03:58:30.294Z,0.83
2022-11-24T04:01:46.760Z,0.88
2022-11-24T04:05:02.988Z,0.90
2022-11-24T04:08:19.702Z,0.96
2022-11-24T04:11:50.088Z,0.95
2022-11-24T04:15:06.291Z,0.94
2022-11-24T04:18:23.286Z,0.97
2022-11-24T04:21:39.852Z,0.98
2022-11-24T04:24:56.063Z,1.00
2022-11-24T04:28:12.877Z,0.94
2022-11-24T04:31:29.215Z,0.98
2022-11-24T04:34:46.679Z,0.95
2022-11-24T04:38:09.018Z,0.99
2022-11-24T04:41:25.428Z,1.07
2022-11-24T04:44:41.658Z,1.18
2022-11-24T04:47:58.284Z,1.24
2022-11-24T04:51:16.072Z,1.26
2022-11-24T04:54:32.707Z,1.32
2022-11-24T04:57:49.310Z,1.33
2022-11-24T05:01:05.668Z,1.35
2022-11-24T05:04:23.795Z,1.35
2022-11-24T05:07:40.265Z,1.27
2022-11-24T05:10:56.674Z,1.22
2022-11-24T05:14:13.090Z,1.17
2022-11-24T05:17:29.422Z,1.27
2022-11-24T05:20:46.039Z,1.33
2022-11-24T05:24:02.393Z,1.37
2022-11-24T05:27:19.389Z,1.31
2022-11-24T05:30:36.105Z,1.23
2022-11-24T05:33:52.415Z,1.17
2022-11-24T05:37:09.098Z,1.13
2022-11-24T05:40:26.312Z,1.15
2022-11-24T05:43:43.486Z,1.12
2022-11-24T05:46:59.889Z,1.10
2022-11-24T05:50:18.851Z,1.10
2022-11-24T05:53:35.354Z,1.11
2022-11-24T05:56:51.525Z,1.16
2022-11-24T06:00:08.881Z,1.12
2022-11-24T06:03:31.087Z,1.10
2022-11-24T06:06:47.305Z,1.10
2022-11-24T06:10:03.564Z,1.10
2022-11-24T06:13:20.213Z,1.10
2022-11-24T06:16:37.266Z,1.02
2022-11-24T06:19:55.545Z,1.01
2022-11-24T06:23:11.904Z,0.99
2022-11-24T06:26:28.574Z,1.01
2022-11-24T06:29:44.909Z,0.93
2022-11-24T06:33:04.510Z,0.98
2022-11-24T06:36:22.618Z,0.99
2022-11-24T06:42:59.174Z,1.10
2022-11-24T06:46:15.786Z,1.10
2022-11-24T06:49:33.854Z,1.10
2022-11-24T06:52:50.310Z,1.10
2022-11-24T06:56:15.646Z,1.17
2022-11-24T06:59:30.105Z,1.18
2022-11-24T07:02:46.855Z,1.21
2022-11-24T07:06:07.723Z,1.23
2022-11-24T07:09:24.858Z,1.21
2022-11-24T07:12:44.853Z,1.06
2022-11-24T07:16:01.315Z,1.17
2022-11-24T07:19:24.406Z,1.15
2022-11-24T07:22:35.281Z,1.15
2022-11-24T07:25:51.292Z,1.10
2022-11-24T07:29:07.838Z,1.17
2022-11-24T07:32:24.350Z,1.18
2022-11-24T07:35:41.324Z,1.17
2022-11-24T07:38:58.093Z,1.25
2022-11-24T07:42:14.894Z,1.18
2022-11-24T07:45:32.587Z,1.21
2022-11-24T07:48:49.495Z,1.35
2022-11-24T07:52:06.059Z,1.41
2022-11-24T07:55:23.821Z,1.40
2022-11-24T07:58:42.687Z,1.41
2022-11-24T08:01:59.262Z,1.35
2022-11-24T08:05:16.753Z,1.43
2022-11-24T08:08:34.111Z,1.43
2022-11-24T08:11:50.681Z,1.39
2022-11-24T08:15:11.168Z,1.44
2022-11-24T08:18:28.940Z,1.42
2022-11-24T08:21:45.662Z,1.36
2022-11-24T08:25:02.242Z,1.39
2022-11-24T08:28:20.064Z,1.24
2022-11-24T08:31:37.963Z,1.29
2022-11-24T08:34:59.707Z,1.31
2022-11-24T08:38:13.284Z,1.20
2022-11-24T08:41:30.087Z,1.19
2022-11-24T08:44:46.678Z,1.13
2022-11-24T08:48:05.142Z,1.10
2022-11-24T08:51:25.005Z,1.11
2022-11-24T08:54:41.562Z,1.09
2022-11-24T08:57:58.215Z,1.09
2022-11-24T09:01:18.429Z,1.12
2022-11-24T09:04:35.530Z,1.13
2022-11-24T09:07:52.676Z,1.12
2022-11-24T09:11:12.501Z,1.17
2022-11-24T09:14:29.693Z,1.27
2022-11-24T09:17:47.112Z,1.23
2022-11-24T09:21:09.849Z,1.26
2022-11-24T09:24:26.859Z,1.26
2022-11-24T09:27:46.665Z,1.24
2022-11-24T09:31:05.617Z,1.21
2022-11-24T09:34:24.186Z,1.14
2022-11-24T09:37:44.135Z,1.17
2022-11-24T09:41:02.236Z,1.26
2022-11-24T09:44:51.395Z,1.33
2022-11-24T09:48:13.418Z,1.30
2022-11-24T09:51:33.365Z,1.32
2022-11-24T09:54:54.030Z,1.40
2022-11-24T09:58:26.822Z,1.39
2022-11-24T10:01:46.723Z,1.31
2022-11-24T10:05:03.040Z,1.32
2022-11-24T10:08:31.625Z,1.27
2022-11-24T10:11:52.592Z,1.26
2022-11-24T10:15:34.297Z,1.31
2022-11-24T10:19:05.625Z,1.34
2022-11-24T10:22:37.121Z,1.21
2022-11-24T10:25:57.775Z,1.31
2022-11-24T10:29:24.881Z,1.35
2022-11-24T10:32:46.038Z,1.39
2022-11-24T10:36:07.114Z,1.41
2022-11-24T10:39:29.152Z,1.44
2022-11-24T10:42:48.080Z,1.37
2022-11-24T10:46:08.611Z,1.39
2022-11-24T10:49:31.472Z,1.50
2022-11-24T10:52:52.597Z,1.55
2022-11-24T10:56:13.238Z,1.52
2022-11-24T10:59:43.062Z,1.56
2022-11-24T11:03:15.125Z,1.55
2022-11-24T11:06:37.718Z,1.51
2022-11-24T11:09:55.259Z,1.45
2022-11-24T11:13:30.524Z,1.48
2022-11-24T11:16:51.537Z,1.49
2022-11-24T11:20:19.711Z,1.48
2022-11-24T11:23:40.617Z,1.43
2022-11-24T11:27:01.695Z,1.45
2022-11-24T11:34:05.473Z,1.42
2022-11-24T11:37:22.578Z,1.45
2022-11-24T11:40:40.779Z,1.48
2022-11-24T11:44:03.540Z,1.53
2022-11-24T11:47:29.588Z,1.56
2022-11-24T11:54:20.532Z,1.57
2022-11-24T11:57:41.662Z,1.57
2022-11-24T12:01:03.536Z,1.51
2022-11-24T12:04:40.678Z,1.50
2022-11-24T12:08:17.554Z,1.33
2022-11-24T12:11:39.440Z,1.42
2022-11-24T12:15:07.368Z,1.38
2022-11-24T12:18:57.021Z,1.50
2022-11-24T12:22:04.370Z,1.49
2022-11-24T12:25:32.791Z,1.55
2022-11-24T12:28:56.927Z,1.43
2022-11-24T12:32:24.230Z,1.47
2022-11-24T12:35:44.796Z,1.50
2022-11-24T12:39:10.466Z,1.51
2022-11-24T12:42:36.033Z,1.54
2022-11-24T12:46:00.124Z,1.53
2022-11-24T12:49:25.431Z,1.42
2022-11-24T12:52:46.429Z,1.45
2022-11-24T12:56:07.125Z,1.45
2022-11-24T12:59:36.120Z,1.47
2022-11-24T13:03:11.300Z,1.48
2022-11-24T13:06:33.678Z,1.38
2022-11-24T13:10:30.151Z,1.41
2022-11-24T13:13:44.339Z,1.36
2022-11-24T13:20:30.972Z,1.42
2022-11-24T13:23:47.988Z,1.48
2022-11-24T13:27:36.955Z,1.50
2022-11-24T13:31:25.353Z,1.40
2022-11-24T13:35:15.676Z,1.41
2022-11-24T13:38:59.044Z,1.47
2022-11-24T13:42:43.250Z,1.54
2022-11-24T13:45:59.112Z,1.57
2022-11-24T13:49:25.916Z,1.51
2022-11-24T13:53:13.399Z,1.51
2022-11-24T13:56:37.512Z,1.45
2022-11-24T13:59:54.176Z,1.33
2022-11-24T14:03:19.211Z,1.12
2022-11-24T14:06:41.881Z,1.09
2022-11-24T14:10:02.432Z,1.03
2022-11-24T14:13:37.868Z,1.02
2022-11-24T14:16:54.915Z,0.96
2022-11-24T14:20:24.956Z,1.02
2022-11-24T14:23:46.168Z,0.99
2022-11-24T14:27:02.704Z,0.92
2022-11-24T14:30:30.934Z,0.87
2022-11-24T14:33:47.500Z,0.78
2022-11-24T14:37:05.655Z,0.76
2022-11-24T14:40:49.197Z,0.67
2022-11-24T14:44:24.600Z,0.68
2022-11-24T14:47:42.946Z,0.63
2022-11-24T14:51:04.200Z,0.68
2022-11-24T14:54:27.051Z,0.60
2022-11-24T14:57:46.840Z,0.55
2022-11-24T15:01:31.447Z,0.50
2022-11-24T15:05:04.112Z,0.51
2022-11-24T15:08:23.429Z,0.68
2022-11-24T15:11:43.020Z,0.71
2022-11-24T15:15:04.475Z,0.69
2022-11-24T15:18:41.236Z,0.70
2022-11-24T15:21:59.157Z,0.61
2022-11-24T15:25:43.682Z,0.59
2022-11-24T15:29:00.208Z,0.48
2022-11-24T15:32:25.174Z,0.47
2022-11-24T15:35:42.393Z,0.57
2022-11-24T15:39:00.222Z,0.55
2022-11-24T15:42:21.639Z,0.55
2022-11-24T15:45:37.960Z,0.54
2022-11-24T15:48:54.344Z,0.53
2022-11-24T15:52:14.834Z,0.47
2022-11-24T15:55:32.094Z,0.41
2022-11-24T15:58:52.602Z,0.42
2022-11-24T16:02:11.660Z,0.46
2022-11-24T16:05:28.002Z,0.44
2022-11-24T16:08:44.281Z,0.43
2022-11-24T16:12:00.527Z,0.39
2022-11-24T16:15:18.546Z,0.35
2022-11-24T16:18:36.226Z,0.36
2022-11-24T16:21:54.910Z,0.34
2022-11-24T16:25:12.100Z,0.43
2022-11-24T16:28:28.578Z,0.46
2022-11-24T16:31:46.837Z,0.41
2022-11-24T16:35:03.178Z,0.42
2022-11-24T16:38:24.207Z,0.43
2022-11-24T16:41:40.743Z,0.44
2022-11-24T16:44:57.261Z,0.42
2022-11-24T16:48:14.252Z,0.48
2022-11-24T16:51:34.758Z,0.44
2022-11-24T16:54:53.025Z,0.35
2022-11-24T16:58:10.538Z,0.36
2022-11-24T17:01:27.546Z,0.38
2022-11-24T17:04:44.460Z,0.41
2022-11-24T17:08:09.419Z,0.40
2022-11-24T17:11:33.690Z,0.41
2022-11-24T17:15:24.617Z,0.42
2022-11-24T17:18:30.395Z,0.37
2022-11-24T17:21:44.610Z,0.33
2022-11-24T17:25:00.927Z,0.30
2022-11-24T17:28:18.239Z,0.28
2022-11-24T17:31:41.026Z,0.26
2022-11-24T17:34:57.542Z,0.26
2022-11-24T17:38:14.201Z,0.31
2022-11-24T17:41:30.996Z,0.34
2022-11-24T17:44:47.480Z,0.31
2022-11-24T17:48:04.494Z,0.29
2022-11-24T17:51:23.413Z,0.31
2022-11-24T17:54:46.482Z,0.28
2022-11-24T17:57:57.999Z,0.26
2022-11-24T18:01:14.898Z,0.27
2022-11-24T18:04:31.540Z,0.13
2022-11-24T18:07:50.672Z,0.25
2022-11-24T18:11:13.211Z,0.29
2022-11-24T18:14:29.520Z,0.34
2022-11-24T18:17:46.092Z,0.36
2022-11-24T18:21:05.707Z,0.36
2022-11-24T18:27:37.099Z,0.36
2022-11-24T18:30:53.729Z,0.40
2022-11-24T18:34:10.577Z,0.35
2022-11-24T18:37:26.896Z,0.33
2022-11-24T18:40:45.566Z,0.35
2022-11-24T18:44:03.141Z,0.32
2022-11-24T18:47:20.980Z,0.32
2022-11-24T18:50:38.741Z,0.44
2022-11-24T18:53:59.336Z,0.50
2022-11-24T18:57:15.989Z,0.51
2022-11-24T19:00:34.207Z,0.45
2022-11-24T19:03:57.563Z,0.49
2022-11-24T19:07:15.991Z,0.54
2022-11-24T19:10:32.317Z,0.56
2022-11-24T19:13:49.633Z,0.60
2022-11-24T19:17:08.116Z,0.59
2022-11-24T19:20:25.015Z,0.62
2022-11-24T19:23:43.740Z,0.63
2022-11-24T19:27:00.579Z,0.63
2022-11-24T19:30:20.869Z,0.68
2022-11-24T19:33:40.536Z,0.71
2022-11-24T19:36:57.330Z,0.69
2022-11-24T19:40:16.989Z,0.75
2022-11-24T19:43:38.315Z,0.80
2022-11-24T19:46:54.921Z,0.82
2022-11-24T19:50:12.965Z,0.84
2022-11-24T19:53:30.800Z,0.86
2022-11-24T19:56:47.721Z,0.87
2022-11-24T20:00:04.631Z,0.92
2022-11-24T20:03:22.421Z,0.97
2022-11-24T20:06:43.669Z,0.91
2022-11-24T20:10:07.717Z,0.90
2022-11-24T20:13:23.403Z,0.86
2022-11-24T20:16:44.307Z,0.85
2022-11-24T20:20:01.234Z,0.79
2022-11-24T20:23:18.814Z,0.83
2022-11-24T20:26:38.212Z,0.84
2022-11-24T20:29:57.067Z,0.86
2022-11-24T20:33:16.566Z,0.84
2022-11-24T20:36:36.914Z,0.82
2022-11-24T20:39:53.475Z,0.76
2022-11-24T20:43:10.372Z,0.73
2022-11-24T20:46:31.379Z,0.75
2022-11-24T20:49:45.254Z,0.78
2022-11-24T20:53:01.384Z,0.75
2022-11-24T20:56:21.140Z,0.71
2022-11-24T20:59:37.666Z,0.73
2022-11-24T21:02:54.178Z,0.76
2022-11-24T21:06:11.031Z,0.78
2022-11-24T21:09:28.343Z,0.77
2022-11-24T21:12:45.013Z,0.75
2022-11-24T21:16:02.366Z,0.74
2022-11-24T21:19:22.289Z,0.71
2022-11-24T21:22:39.840Z,0.70
2022-11-24T21:25:55.927Z,0.69
2022-11-24T21:29:13.837Z,0.61
2022-11-24T21:32:30.207Z,0.58
2022-11-24T21:35:47.260Z,0.56
2022-11-24T21:39:05.815Z,0.62
2022-11-24T21:42:22.449Z,0.71
2022-11-24T21:45:40.974Z,0.70
2022-11-24T21:48:57.748Z,0.75
2022-11-24T21:52:14.350Z,0.81
2022-11-24T21:55:30.831Z,0.90
2022-11-24T21:58:52.186Z,0.94
2022-11-24T22:02:12.896Z,0.95
2022-11-24T22:05:26.601Z,0.94
2022-11-24T22:08:45.388Z,0.93
2022-11-24T22:12:01.568Z,0.93
2022-11-24T22:15:19.103Z,0.88
2022-11-24T22:18:38.507Z,0.92
2022-11-24T22:21:52.779Z,0.92
2022-11-24T22:28:24.177Z,0.79
2022-11-24T22:31:41.785Z,0.80
2022-11-24T22:34:57.892Z,0.77
2022-11-24T22:38:14.265Z,0.76
2022-11-24T22:41:30.564Z,0.79
2022-11-24T22:44:46.757Z,0.80
2022-11-24T22:48:04.776Z,0.79
2022-11-24T22:51:24.140Z,0.73
2022-11-24T22:54:40.383Z,0.72
2022-11-24T22:57:57.453Z,0.72
2022-11-24T23:01:19.911Z,0.69
2022-11-24T23:04:36.553Z,0.74
2022-11-24T23:07:53.050Z,0.74
2022-11-24T23:11:19.878Z,0.79
2022-11-24T23:14:36.475Z,0.78
2022-11-24T23:17:53.431Z,0.76
2022-11-24T23:21:16.782Z,0.74
2022-11-24T23:24:33.231Z,0.67
2022-11-24T23:27:49.813Z,0.68
2022-11-24T23:31:12.290Z,0.70
2022-11-24T23:34:30.979Z,0.67
2022-11-24T23:38:06.531Z,0.68
2022-11-24T23:41:11.532Z,0.66
2022-11-24T23:44:27.657Z,0.70
2022-11-24T23:47:44.226Z,0.69
2022-11-24T23:51:00.636Z,0.65
2022-11-24T23:54:17.648Z,0.70
2022-11-24T23:57:33.819Z,0.70
